sensor_id;sensor_type;location;lat;lon;timestamp;P1;durP1;ratioP1;P2;durP2;ratioP2
24644;SDS011;12780;45.502;9.146;2024-03-08T00:01:35;25.75;;;15.30;;
24644;SDS011;12780;45.502;9.146;2024-03-08T00:04:01;27.98;;;15.30;;
24644;SDS011;12780;45.502;9.146;2024-03-08T00:06:27;24.30;;;14.70;;
24644;SDS011;12780;45.502;9.146;2024-03-08T00:08:53;30.48;;;14.98;;
24644;SDS011;12780;45.502;9.146;2024-03-08T00:11:21;29.17;;;14.80;;
24644;SDS011;12780;45.502;9.146;2024-03-08T00:13:47;34.78;;;14.52;;
24644;SDS011;12780;45.502;9.146;2024-03-08T00:16:13;30.92;;;16.35;;
24644;SDS011;12780;45.502;9.146;2024-03-08T00:18:39;26.10;;;14.85;;
24644;SDS011;12780;45.502;9.146;2024-03-08T00:21:05;27.75;;;14.90;;
24644;SDS011;12780;45.502;9.146;2024-03-08T00:23:31;28.55;;;16.00;;
24644;SDS011;12780;45.502;9.146;2024-03-08T00:25:58;30.52;;;15.68;;
24644;SDS011;12780;45.502;9.146;2024-03-08T00:28:24;29.50;;;15.63;;
24644;SDS011;12780;45.502;9.146;2024-03-08T00:30:52;26.55;;;15.50;;
24644;SDS011;12780;45.502;9.146;2024-03-08T00:33:18;28.85;;;14.75;;
24644;SDS011;12780;45.502;9.146;2024-03-08T00:35:44;28.25;;;14.90;;
24644;SDS011;12780;45.502;9.146;2024-03-08T00:38:10;25.98;;;14.95;;
24644;SDS011;12780;45.502;9.146;2024-03-08T00:40:36;27.40;;;15.52;;
24644;SDS011;12780;45.502;9.146;2024-03-08T00:43:02;30.55;;;16.02;;
24644;SDS011;12780;45.502;9.146;2024-03-08T00:45:29;27.20;;;16.23;;
24644;SDS011;12780;45.502;9.146;2024-03-08T00:47:55;28.58;;;15.43;;
24644;SDS011;12780;45.502;9.146;2024-03-08T00:50:21;28.58;;;15.63;;
24644;SDS011;12780;45.502;9.146;2024-03-08T00:52:47;31.08;;;16.60;;
24644;SDS011;12780;45.502;9.146;2024-03-08T00:55:13;31.90;;;17.48;;
24644;SDS011;12780;45.502;9.146;2024-03-08T00:57:39;32.03;;;17.58;;
24644;SDS011;12780;45.502;9.146;2024-03-08T01:00:06;28.60;;;16.52;;
24644;SDS011;12780;45.502;9.146;2024-03-08T01:02:36;30.42;;;16.40;;
24644;SDS011;12780;45.502;9.146;2024-03-08T01:05:02;33.20;;;16.58;;
24644;SDS011;12780;45.502;9.146;2024-03-08T01:07:31;32.00;;;17.60;;
24644;SDS011;12780;45.502;9.146;2024-03-08T01:09:57;33.47;;;17.10;;
24644;SDS011;12780;45.502;9.146;2024-03-08T01:12:23;32.95;;;17.83;;
24644;SDS011;12780;45.502;9.146;2024-03-08T01:14:48;31.20;;;17.65;;
24644;SDS011;12780;45.502;9.146;2024-03-08T01:17:15;29.63;;;16.73;;
24644;SDS011;12780;45.502;9.146;2024-03-08T01:19:42;32.13;;;16.38;;
24644;SDS011;12780;45.502;9.146;2024-03-08T01:22:10;28.70;;;16.27;;
24644;SDS011;12780;45.502;9.146;2024-03-08T01:24:36;28.40;;;14.88;;
24644;SDS011;12780;45.502;9.146;2024-03-08T01:27:02;29.55;;;15.25;;
24644;SDS011;12780;45.502;9.146;2024-03-08T01:29:28;24.58;;;14.82;;
24644;SDS011;12780;45.502;9.146;2024-03-08T01:31:57;30.77;;;15.32;;
24644;SDS011;12780;45.502;9.146;2024-03-08T01:34:26;31.02;;;14.57;;
24644;SDS011;12780;45.502;9.146;2024-03-08T01:36:53;27.02;;;14.52;;
24644;SDS011;12780;45.502;9.146;2024-03-08T01:39:21;28.25;;;14.43;;
24644;SDS011;12780;45.502;9.146;2024-03-08T01:41:47;30.48;;;14.27;;
24644;SDS011;12780;45.502;9.146;2024-03-08T01:44:13;23.80;;;14.10;;
24644;SDS011;12780;45.502;9.146;2024-03-08T01:46:45;25.75;;;14.52;;
24644;SDS011;12780;45.502;9.146;2024-03-08T01:49:12;23.98;;;13.57;;
24644;SDS011;12780;45.502;9.146;2024-03-08T01:51:38;23.30;;;13.30;;
24644;SDS011;12780;45.502;9.146;2024-03-08T01:54:05;26.73;;;14.27;;
24644;SDS011;12780;45.502;9.146;2024-03-08T01:56:31;27.67;;;14.25;;
24644;SDS011;12780;45.502;9.146;2024-03-08T01:58:58;27.10;;;14.40;;
24644;SDS011;12780;45.502;9.146;2024-03-08T02:01:25;25.83;;;13.82;;
24644;SDS011;12780;45.502;9.146;2024-03-08T02:03:51;27.80;;;14.68;;
24644;SDS011;12780;45.502;9.146;2024-03-08T02:06:17;26.10;;;14.65;;
24644;SDS011;12780;45.502;9.146;2024-03-08T02:08:43;25.90;;;13.75;;
24644;SDS011;12780;45.502;9.146;2024-03-08T02:11:10;28.60;;;14.10;;
24644;SDS011;12780;45.502;9.146;2024-03-08T02:13:36;27.98;;;14.80;;
24644;SDS011;12780;45.502;9.146;2024-03-08T02:16:02;26.65;;;14.02;;
24644;SDS011;12780;45.502;9.146;2024-03-08T02:18:30;26.08;;;15.07;;
24644;SDS011;12780;45.502;9.146;2024-03-08T02:20:59;31.35;;;15.52;;
24644;SDS011;12780;45.502;9.146;2024-03-08T02:23:25;28.30;;;15.13;;
24644;SDS011;12780;45.502;9.146;2024-03-08T02:25:52;26.30;;;14.65;;
24644;SDS011;12780;45.502;9.146;2024-03-08T02:28:19;27.17;;;14.70;;
24644;SDS011;12780;45.502;9.146;2024-03-08T02:30:45;31.30;;;15.43;;
24644;SDS011;12780;45.502;9.146;2024-03-08T02:33:12;29.30;;;16.17;;
24644;SDS011;12780;45.502;9.146;2024-03-08T02:35:41;35.20;;;15.95;;
24644;SDS011;12780;45.502;9.146;2024-03-08T02:38:07;31.05;;;15.98;;
24644;SDS011;12780;45.502;9.146;2024-03-08T02:40:33;33.38;;;16.75;;
24644;SDS011;12780;45.502;9.146;2024-03-08T02:42:59;27.83;;;16.15;;
24644;SDS011;12780;45.502;9.146;2024-03-08T02:45:25;30.35;;;16.13;;
24644;SDS011;12780;45.502;9.146;2024-03-08T02:47:51;32.17;;;17.35;;
24644;SDS011;12780;45.502;9.146;2024-03-08T02:50:17;29.00;;;16.63;;
24644;SDS011;12780;45.502;9.146;2024-03-08T02:52:43;30.05;;;16.95;;
24644;SDS011;12780;45.502;9.146;2024-03-08T02:55:11;34.35;;;17.17;;
24644;SDS011;12780;45.502;9.146;2024-03-08T02:57:40;31.00;;;17.75;;
24644;SDS011;12780;45.502;9.146;2024-03-08T03:00:07;33.13;;;16.65;;
24644;SDS011;12780;45.502;9.146;2024-03-08T03:02:34;34.00;;;17.58;;
24644;SDS011;12780;45.502;9.146;2024-03-08T03:05:00;30.15;;;17.50;;
24644;SDS011;12780;45.502;9.146;2024-03-08T03:07:31;36.45;;;17.02;;
24644;SDS011;12780;45.502;9.146;2024-03-08T03:09:58;33.88;;;17.58;;
24644;SDS011;12780;45.502;9.146;2024-03-08T03:12:25;31.52;;;17.27;;
24644;SDS011;12780;45.502;9.146;2024-03-08T03:14:51;31.60;;;17.73;;
24644;SDS011;12780;45.502;9.146;2024-03-08T03:17:17;28.85;;;17.00;;
24644;SDS011;12780;45.502;9.146;2024-03-08T03:19:43;31.00;;;17.50;;
24644;SDS011;12780;45.502;9.146;2024-03-08T03:22:09;30.67;;;17.25;;
24644;SDS011;12780;45.502;9.146;2024-03-08T03:24:35;38.42;;;18.13;;
24644;SDS011;12780;45.502;9.146;2024-03-08T03:27:03;35.42;;;17.02;;
24644;SDS011;12780;45.502;9.146;2024-03-08T03:29:36;29.33;;;17.20;;
24644;SDS011;12780;45.502;9.146;2024-03-08T03:32:02;32.67;;;17.52;;
24644;SDS011;12780;45.502;9.146;2024-03-08T03:34:29;33.00;;;17.90;;
24644;SDS011;12780;45.502;9.146;2024-03-08T03:36:55;33.72;;;17.35;;
24644;SDS011;12780;45.502;9.146;2024-03-08T03:39:21;32.83;;;18.30;;
24644;SDS011;12780;45.502;9.146;2024-03-08T03:41:48;36.03;;;18.95;;
24644;SDS011;12780;45.502;9.146;2024-03-08T03:44:17;33.33;;;18.38;;
24644;SDS011;12780;45.502;9.146;2024-03-08T03:46:43;32.92;;;17.73;;
24644;SDS011;12780;45.502;9.146;2024-03-08T03:49:09;30.33;;;17.60;;
24644;SDS011;12780;45.502;9.146;2024-03-08T03:51:35;34.83;;;18.92;;
24644;SDS011;12780;45.502;9.146;2024-03-08T03:54:01;34.72;;;19.50;;
24644;SDS011;12780;45.502;9.146;2024-03-08T03:56:28;37.88;;;19.52;;
24644;SDS011;12780;45.502;9.146;2024-03-08T03:58:55;36.60;;;18.70;;
24644;SDS011;12780;45.502;9.146;2024-03-08T04:01:21;35.42;;;19.02;;
24644;SDS011;12780;45.502;9.146;2024-03-08T04:03:48;34.75;;;19.30;;
24644;SDS011;12780;45.502;9.146;2024-03-08T04:06:14;34.20;;;19.13;;
24644;SDS011;12780;45.502;9.146;2024-03-08T04:08:40;35.17;;;19.90;;
24644;SDS011;12780;45.502;9.146;2024-03-08T04:11:06;38.25;;;20.50;;
24644;SDS011;12780;45.502;9.146;2024-03-08T04:13:35;36.45;;;19.13;;
24644;SDS011;12780;45.502;9.146;2024-03-08T04:16:02;37.58;;;19.38;;
24644;SDS011;12780;45.502;9.146;2024-03-08T04:18:28;36.47;;;20.08;;
24644;SDS011;12780;45.502;9.146;2024-03-08T04:20:54;35.65;;;20.63;;
24644;SDS011;12780;45.502;9.146;2024-03-08T04:23:20;35.67;;;19.73;;
24644;SDS011;12780;45.502;9.146;2024-03-08T04:25:46;38.25;;;20.25;;
24644;SDS011;12780;45.502;9.146;2024-03-08T04:28:12;40.05;;;21.15;;
24644;SDS011;12780;45.502;9.146;2024-03-08T04:30:38;39.20;;;20.50;;
24644;SDS011;12780;45.502;9.146;2024-03-08T04:33:07;39.00;;;21.48;;
24644;SDS011;12780;45.502;9.146;2024-03-08T04:35:33;41.28;;;20.48;;
24644;SDS011;12780;45.502;9.146;2024-03-08T04:38:00;48.97;;;24.25;;
24644;SDS011;12780;45.502;9.146;2024-03-08T04:40:26;49.40;;;24.27;;
24644;SDS011;12780;45.502;9.146;2024-03-08T04:42:52;42.85;;;22.52;;
24644;SDS011;12780;45.502;9.146;2024-03-08T04:45:18;77.25;;;35.85;;
24644;SDS011;12780;45.502;9.146;2024-03-08T04:47:44;64.80;;;32.63;;
24644;SDS011;12780;45.502;9.146;2024-03-08T04:50:10;46.60;;;24.67;;
24644;SDS011;12780;45.502;9.146;2024-03-08T04:52:36;50.30;;;26.58;;
24644;SDS011;12780;45.502;9.146;2024-03-08T04:55:02;45.78;;;24.55;;
24644;SDS011;12780;45.502;9.146;2024-03-08T04:57:31;40.92;;;23.42;;
24644;SDS011;12780;45.502;9.146;2024-03-08T04:59:57;45.67;;;23.90;;
24644;SDS011;12780;45.502;9.146;2024-03-08T05:02:24;37.05;;;21.13;;
24644;SDS011;12780;45.502;9.146;2024-03-08T05:04:50;38.80;;;20.13;;
24644;SDS011;12780;45.502;9.146;2024-03-08T05:07:16;39.90;;;20.40;;
24644;SDS011;12780;45.502;9.146;2024-03-08T05:09:42;35.03;;;19.88;;
24644;SDS011;12780;45.502;9.146;2024-03-08T05:12:16;38.92;;;20.15;;
24644;SDS011;12780;45.502;9.146;2024-03-08T05:14:42;37.38;;;19.02;;
24644;SDS011;12780;45.502;9.146;2024-03-08T05:17:08;36.17;;;19.60;;
24644;SDS011;12780;45.502;9.146;2024-03-08T05:19:34;33.63;;;19.40;;
24644;SDS011;12780;45.502;9.146;2024-03-08T05:22:01;36.08;;;18.90;;
24644;SDS011;12780;45.502;9.146;2024-03-08T05:24:28;36.15;;;19.33;;
24644;SDS011;12780;45.502;9.146;2024-03-08T05:26:55;33.92;;;18.75;;
24644;SDS011;12780;45.502;9.146;2024-03-08T05:29:21;36.72;;;19.05;;
24644;SDS011;12780;45.502;9.146;2024-03-08T05:31:48;35.42;;;18.23;;
24644;SDS011;12780;45.502;9.146;2024-03-08T05:34:15;36.95;;;18.92;;
24644;SDS011;12780;45.502;9.146;2024-03-08T05:36:41;33.08;;;18.38;;
24644;SDS011;12780;45.502;9.146;2024-03-08T05:39:12;34.50;;;17.30;;
24644;SDS011;12780;45.502;9.146;2024-03-08T05:41:38;31.95;;;17.55;;
24644;SDS011;12780;45.502;9.146;2024-03-08T05:44:05;28.92;;;16.95;;
24644;SDS011;12780;45.502;9.146;2024-03-08T05:46:31;32.45;;;16.80;;
24644;SDS011;12780;45.502;9.146;2024-03-08T05:48:57;32.45;;;18.08;;
24644;SDS011;12780;45.502;9.146;2024-03-08T05:51:30;35.17;;;17.38;;
24644;SDS011;12780;45.502;9.146;2024-03-08T05:53:56;30.17;;;17.38;;
24644;SDS011;12780;45.502;9.146;2024-03-08T05:56:23;33.83;;;18.05;;
24644;SDS011;12780;45.502;9.146;2024-03-08T05:58:49;41.00;;;18.52;;
24644;SDS011;12780;45.502;9.146;2024-03-08T06:01:15;33.03;;;19.17;;
24644;SDS011;12780;45.502;9.146;2024-03-08T06:03:41;30.27;;;17.33;;
24644;SDS011;12780;45.502;9.146;2024-03-08T06:06:13;31.33;;;17.77;;
24644;SDS011;12780;45.502;9.146;2024-03-08T06:08:39;36.45;;;16.52;;
24644;SDS011;12780;45.502;9.146;2024-03-08T06:11:07;29.90;;;17.10;;
24644;SDS011;12780;45.502;9.146;2024-03-08T06:13:33;30.13;;;16.67;;
24644;SDS011;12780;45.502;9.146;2024-03-08T06:16:00;25.67;;;14.95;;
24644;SDS011;12780;45.502;9.146;2024-03-08T06:18:29;28.20;;;14.95;;
24644;SDS011;12780;45.502;9.146;2024-03-08T06:20:55;26.67;;;14.77;;
24644;SDS011;12780;45.502;9.146;2024-03-08T06:23:21;26.70;;;15.23;;
24644;SDS011;12780;45.502;9.146;2024-03-08T06:25:47;25.35;;;13.50;;
24644;SDS011;12780;45.502;9.146;2024-03-08T06:28:13;25.58;;;13.88;;
24644;SDS011;12780;45.502;9.146;2024-03-08T06:30:39;26.85;;;14.43;;
24644;SDS011;12780;45.502;9.146;2024-03-08T06:33:06;24.92;;;13.60;;
24644;SDS011;12780;45.502;9.146;2024-03-08T06:35:32;25.65;;;15.00;;
24644;SDS011;12780;45.502;9.146;2024-03-08T06:37:58;24.40;;;13.40;;
24644;SDS011;12780;45.502;9.146;2024-03-08T06:40:24;22.00;;;13.43;;
24644;SDS011;12780;45.502;9.146;2024-03-08T06:42:50;27.75;;;13.65;;
24644;SDS011;12780;45.502;9.146;2024-03-08T06:45:17;23.85;;;13.80;;
24644;SDS011;12780;45.502;9.146;2024-03-08T06:47:46;22.88;;;12.82;;
24644;SDS011;12780;45.502;9.146;2024-03-08T06:50:12;28.08;;;13.43;;
24644;SDS011;12780;45.502;9.146;2024-03-08T06:52:40;23.08;;;13.05;;
24644;SDS011;12780;45.502;9.146;2024-03-08T06:55:07;24.92;;;13.60;;
24644;SDS011;12780;45.502;9.146;2024-03-08T06:57:37;25.83;;;13.48;;
24644;SDS011;12780;45.502;9.146;2024-03-08T07:00:04;22.15;;;12.15;;
24644;SDS011;12780;45.502;9.146;2024-03-08T07:02:30;22.83;;;12.52;;
24644;SDS011;12780;45.502;9.146;2024-03-08T07:04:57;20.92;;;12.10;;
24644;SDS011;12780;45.502;9.146;2024-03-08T07:07:23;25.88;;;12.95;;
24644;SDS011;12780;45.502;9.146;2024-03-08T07:09:49;27.10;;;14.02;;
24644;SDS011;12780;45.502;9.146;2024-03-08T07:12:15;28.00;;;14.00;;
24644;SDS011;12780;45.502;9.146;2024-03-08T07:14:42;23.45;;;13.75;;
24644;SDS011;12780;45.502;9.146;2024-03-08T07:17:10;26.90;;;14.00;;
24644;SDS011;12780;45.502;9.146;2024-03-08T07:19:36;26.42;;;13.32;;
24644;SDS011;12780;45.502;9.146;2024-03-08T07:22:05;22.83;;;13.32;;
24644;SDS011;12780;45.502;9.146;2024-03-08T07:24:34;28.83;;;13.52;;
24644;SDS011;12780;45.502;9.146;2024-03-08T07:27:04;23.33;;;13.48;;
24644;SDS011;12780;45.502;9.146;2024-03-08T07:29:30;25.70;;;13.25;;
24644;SDS011;12780;45.502;9.146;2024-03-08T07:31:56;23.70;;;13.15;;
24644;SDS011;12780;45.502;9.146;2024-03-08T07:34:25;22.48;;;12.48;;
24644;SDS011;12780;45.502;9.146;2024-03-08T07:36:51;20.20;;;12.30;;
24644;SDS011;12780;45.502;9.146;2024-03-08T07:39:17;26.02;;;12.95;;
24644;SDS011;12780;45.502;9.146;2024-03-08T07:41:44;22.92;;;13.38;;
24644;SDS011;12780;45.502;9.146;2024-03-08T07:44:10;21.90;;;12.45;;
24644;SDS011;12780;45.502;9.146;2024-03-08T07:46:36;25.95;;;12.77;;
24644;SDS011;12780;45.502;9.146;2024-03-08T07:49:02;21.23;;;11.88;;
24644;SDS011;12780;45.502;9.146;2024-03-08T07:51:28;25.05;;;12.88;;
24644;SDS011;12780;45.502;9.146;2024-03-08T07:53:55;23.88;;;11.95;;
24644;SDS011;12780;45.502;9.146;2024-03-08T07:56:22;22.13;;;12.40;;
24644;SDS011;12780;45.502;9.146;2024-03-08T07:58:48;26.30;;;13.00;;
24644;SDS011;12780;45.502;9.146;2024-03-08T08:01:17;21.67;;;11.90;;
24644;SDS011;12780;45.502;9.146;2024-03-08T08:03:44;19.23;;;11.68;;
24644;SDS011;12780;45.502;9.146;2024-03-08T08:06:10;21.90;;;12.32;;
24644;SDS011;12780;45.502;9.146;2024-03-08T08:08:43;23.15;;;11.73;;
24644;SDS011;12780;45.502;9.146;2024-03-08T08:11:09;23.63;;;11.63;;
24644;SDS011;12780;45.502;9.146;2024-03-08T08:13:40;25.20;;;12.02;;
24644;SDS011;12780;45.502;9.146;2024-03-08T08:16:08;25.08;;;12.90;;
24644;SDS011;12780;45.502;9.146;2024-03-08T08:18:35;24.98;;;12.73;;
24644;SDS011;12780;45.502;9.146;2024-03-08T08:21:04;21.50;;;11.75;;
24644;SDS011;12780;45.502;9.146;2024-03-08T08:23:33;22.65;;;11.18;;
24644;SDS011;12780;45.502;9.146;2024-03-08T08:25:59;23.15;;;11.82;;
24644;SDS011;12780;45.502;9.146;2024-03-08T08:28:28;22.40;;;11.20;;
24644;SDS011;12780;45.502;9.146;2024-03-08T08:30:54;20.33;;;11.55;;
24644;SDS011;12780;45.502;9.146;2024-03-08T08:33:20;19.10;;;11.18;;
24644;SDS011;12780;45.502;9.146;2024-03-08T08:35:46;18.80;;;10.73;;
24644;SDS011;12780;45.502;9.146;2024-03-08T08:38:13;23.45;;;11.20;;
24644;SDS011;12780;45.502;9.146;2024-03-08T08:40:38;21.35;;;11.10;;
24644;SDS011;12780;45.502;9.146;2024-03-08T08:43:06;20.17;;;11.25;;
24644;SDS011;12780;45.502;9.146;2024-03-08T08:45:32;20.05;;;11.70;;
24644;SDS011;12780;45.502;9.146;2024-03-08T08:47:58;27.70;;;10.70;;
24644;SDS011;12780;45.502;9.146;2024-03-08T08:50:25;19.70;;;10.75;;
24644;SDS011;12780;45.502;9.146;2024-03-08T08:52:53;23.20;;;11.80;;
24644;SDS011;12780;45.502;9.146;2024-03-08T08:55:19;20.05;;;11.63;;
24644;SDS011;12780;45.502;9.146;2024-03-08T08:57:51;19.88;;;11.15;;
24644;SDS011;12780;45.502;9.146;2024-03-08T09:00:21;23.65;;;11.43;;
24644;SDS011;12780;45.502;9.146;2024-03-08T09:02:49;23.15;;;12.43;;
24644;SDS011;12780;45.502;9.146;2024-03-08T09:05:16;22.50;;;11.70;;
24644;SDS011;12780;45.502;9.146;2024-03-08T09:07:45;19.08;;;11.15;;
24644;SDS011;12780;45.502;9.146;2024-03-08T09:10:11;19.63;;;11.68;;
24644;SDS011;12780;45.502;9.146;2024-03-08T09:12:38;18.50;;;10.85;;
24644;SDS011;12780;45.502;9.146;2024-03-08T09:15:05;22.30;;;11.77;;
24644;SDS011;12780;45.502;9.146;2024-03-08T09:17:33;22.10;;;11.48;;
24644;SDS011;12780;45.502;9.146;2024-03-08T09:19:59;24.60;;;11.60;;
24644;SDS011;12780;45.502;9.146;2024-03-08T09:22:25;24.05;;;11.73;;
24644;SDS011;12780;45.502;9.146;2024-03-08T09:24:51;20.55;;;11.60;;
24644;SDS011;12780;45.502;9.146;2024-03-08T09:27:18;21.00;;;11.48;;
24644;SDS011;12780;45.502;9.146;2024-03-08T09:29:44;20.45;;;10.85;;
24644;SDS011;12780;45.502;9.146;2024-03-08T09:32:10;18.98;;;11.18;;
24644;SDS011;12780;45.502;9.146;2024-03-08T09:34:36;18.73;;;10.75;;
24644;SDS011;12780;45.502;9.146;2024-03-08T09:37:03;19.15;;;10.88;;
24644;SDS011;12780;45.502;9.146;2024-03-08T09:39:29;23.00;;;11.48;;
24644;SDS011;12780;45.502;9.146;2024-03-08T09:41:55;20.48;;;11.13;;
24644;SDS011;12780;45.502;9.146;2024-03-08T09:44:22;20.52;;;10.82;;
24644;SDS011;12780;45.502;9.146;2024-03-08T09:46:50;20.60;;;11.77;;
24644;SDS011;12780;45.502;9.146;2024-03-08T09:49:18;23.20;;;11.35;;
24644;SDS011;12780;45.502;9.146;2024-03-08T09:51:44;19.52;;;11.50;;
24644;SDS011;12780;45.502;9.146;2024-03-08T09:54:11;22.45;;;11.70;;
24644;SDS011;12780;45.502;9.146;2024-03-08T09:56:37;20.35;;;11.65;;
24644;SDS011;12780;45.502;9.146;2024-03-08T09:59:09;21.90;;;11.45;;
24644;SDS011;12780;45.502;9.146;2024-03-08T10:02:01;21.98;;;12.23;;
24644;SDS011;12780;45.502;9.146;2024-03-08T10:04:28;23.10;;;11.30;;
24644;SDS011;12780;45.502;9.146;2024-03-08T10:06:57;20.45;;;11.80;;
24644;SDS011;12780;45.502;9.146;2024-03-08T10:09:24;26.10;;;11.77;;
24644;SDS011;12780;45.502;9.146;2024-03-08T10:11:58;23.52;;;11.85;;
24644;SDS011;12780;45.502;9.146;2024-03-08T10:14:27;25.70;;;12.97;;
24644;SDS011;12780;45.502;9.146;2024-03-08T10:16:53;23.55;;;11.50;;
24644;SDS011;12780;45.502;9.146;2024-03-08T10:19:24;25.33;;;12.40;;
24644;SDS011;12780;45.502;9.146;2024-03-08T10:21:50;23.95;;;11.70;;
24644;SDS011;12780;45.502;9.146;2024-03-08T10:24:22;21.02;;;11.27;;
24644;SDS011;12780;45.502;9.146;2024-03-08T10:26:50;23.65;;;12.68;;
24644;SDS011;12780;45.502;9.146;2024-03-08T10:29:16;22.45;;;12.18;;
24644;SDS011;12780;45.502;9.146;2024-03-08T10:31:44;22.50;;;12.13;;
24644;SDS011;12780;45.502;9.146;2024-03-08T10:34:10;21.33;;;12.45;;
24644;SDS011;12780;45.502;9.146;2024-03-08T10:36:36;24.48;;;11.90;;
24644;SDS011;12780;45.502;9.146;2024-03-08T10:39:04;23.58;;;12.75;;
24644;SDS011;12780;45.502;9.146;2024-03-08T10:41:32;24.58;;;13.02;;
24644;SDS011;12780;45.502;9.146;2024-03-08T10:44:17;24.05;;;13.00;;
24644;SDS011;12780;45.502;9.146;2024-03-08T10:46:54;20.05;;;12.32;;
24644;SDS011;12780;45.502;9.146;2024-03-08T10:49:26;21.20;;;12.02;;
24644;SDS011;12780;45.502;9.146;2024-03-08T10:51:54;20.80;;;11.77;;
24644;SDS011;12780;45.502;9.146;2024-03-08T10:54:21;23.30;;;11.85;;
24644;SDS011;12780;45.502;9.146;2024-03-08T10:56:49;19.35;;;11.80;;
24644;SDS011;12780;45.502;9.146;2024-03-08T10:59:15;20.50;;;12.43;;
24644;SDS011;12780;45.502;9.146;2024-03-08T11:01:42;24.55;;;12.50;;
24644;SDS011;12780;45.502;9.146;2024-03-08T11:04:08;23.13;;;12.88;;
24644;SDS011;12780;45.502;9.146;2024-03-08T11:11:49;25.73;;;11.82;;
24644;SDS011;12780;45.502;9.146;2024-03-08T11:16:59;25.02;;;12.15;;
24644;SDS011;12780;45.502;9.146;2024-03-08T11:19:31;22.45;;;11.65;;
24644;SDS011;12780;45.502;9.146;2024-03-08T11:21:58;23.77;;;11.45;;
24644;SDS011;12780;45.502;9.146;2024-03-08T11:24:24;18.48;;;11.07;;
24644;SDS011;12780;45.502;9.146;2024-03-08T11:26:54;21.67;;;11.80;;
24644;SDS011;12780;45.502;9.146;2024-03-08T11:32:11;23.55;;;11.40;;
24644;SDS011;12780;45.502;9.146;2024-03-08T11:34:39;21.98;;;11.60;;
24644;SDS011;12780;45.502;9.146;2024-03-08T11:37:08;20.27;;;11.45;;
24644;SDS011;12780;45.502;9.146;2024-03-08T11:39:38;20.55;;;11.50;;
24644;SDS011;12780;45.502;9.146;2024-03-08T11:42:04;21.60;;;10.45;;
24644;SDS011;12780;45.502;9.146;2024-03-08T11:44:30;23.10;;;11.05;;
24644;SDS011;12780;45.502;9.146;2024-03-08T11:46:56;17.73;;;10.93;;
24644;SDS011;12780;45.502;9.146;2024-03-08T11:49:23;18.88;;;10.73;;
24644;SDS011;12780;45.502;9.146;2024-03-08T11:51:51;17.25;;;10.27;;
24644;SDS011;12780;45.502;9.146;2024-03-08T11:54:17;18.83;;;10.93;;
24644;SDS011;12780;45.502;9.146;2024-03-08T11:56:44;17.83;;;9.85;;
24644;SDS011;12780;45.502;9.146;2024-03-08T11:59:13;16.67;;;10.05;;
24644;SDS011;12780;45.502;9.146;2024-03-08T12:01:39;27.58;;;11.75;;
24644;SDS011;12780;45.502;9.146;2024-03-08T12:04:10;18.73;;;9.93;;
24644;SDS011;12780;45.502;9.146;2024-03-08T12:06:38;18.30;;;10.30;;
24644;SDS011;12780;45.502;9.146;2024-03-08T12:09:08;14.13;;;9.60;;
24644;SDS011;12780;45.502;9.146;2024-03-08T12:11:35;19.58;;;10.30;;
24644;SDS011;12780;45.502;9.146;2024-03-08T12:14:02;17.38;;;10.15;;
24644;SDS011;12780;45.502;9.146;2024-03-08T12:16:28;22.25;;;10.20;;
24644;SDS011;12780;45.502;9.146;2024-03-08T12:18:54;17.25;;;10.30;;
24644;SDS011;12780;45.502;9.146;2024-03-08T12:21:20;17.73;;;9.30;;
24644;SDS011;12780;45.502;9.146;2024-03-08T12:23:53;17.08;;;9.60;;
24644;SDS011;12780;45.502;9.146;2024-03-08T12:26:27;17.65;;;10.02;;
24644;SDS011;12780;45.502;9.146;2024-03-08T12:28:54;17.98;;;9.90;;
24644;SDS011;12780;45.502;9.146;2024-03-08T12:31:20;17.13;;;10.45;;
24644;SDS011;12780;45.502;9.146;2024-03-08T12:36:14;17.00;;;10.15;;
24644;SDS011;12780;45.502;9.146;2024-03-08T12:38:43;19.52;;;9.98;;
24644;SDS011;12780;45.502;9.146;2024-03-08T12:41:12;16.90;;;9.90;;
24644;SDS011;12780;45.502;9.146;2024-03-08T12:43:38;17.77;;;10.60;;
24644;SDS011;12780;45.502;9.146;2024-03-08T12:46:04;18.70;;;10.65;;
24644;SDS011;12780;45.502;9.146;2024-03-08T12:48:34;15.40;;;10.07;;
24644;SDS011;12780;45.502;9.146;2024-03-08T12:51:00;21.92;;;10.05;;
24644;SDS011;12780;45.502;9.146;2024-03-08T12:53:26;19.30;;;10.82;;
24644;SDS011;12780;45.502;9.146;2024-03-08T12:55:54;21.20;;;12.18;;
24644;SDS011;12780;45.502;9.146;2024-03-08T12:58:21;17.73;;;10.27;;
24644;SDS011;12780;45.502;9.146;2024-03-08T13:00:48;17.77;;;10.95;;
24644;SDS011;12780;45.502;9.146;2024-03-08T13:03:14;22.40;;;10.57;;
24644;SDS011;12780;45.502;9.146;2024-03-08T13:05:41;17.00;;;10.52;;
24644;SDS011;12780;45.502;9.146;2024-03-08T13:08:08;17.58;;;10.25;;
24644;SDS011;12780;45.502;9.146;2024-03-08T13:13:09;20.30;;;10.70;;
24644;SDS011;12780;45.502;9.146;2024-03-08T13:15:35;18.30;;;10.25;;
24644;SDS011;12780;45.502;9.146;2024-03-08T13:18:01;18.95;;;10.63;;
24644;SDS011;12780;45.502;9.146;2024-03-08T13:20:28;17.77;;;10.30;;
24644;SDS011;12780;45.502;9.146;2024-03-08T13:22:54;18.00;;;10.60;;
24644;SDS011;12780;45.502;9.146;2024-03-08T13:25:22;17.55;;;10.65;;
24644;SDS011;12780;45.502;9.146;2024-03-08T13:27:49;20.80;;;11.25;;
24644;SDS011;12780;45.502;9.146;2024-03-08T13:30:15;18.83;;;10.98;;
24644;SDS011;12780;45.502;9.146;2024-03-08T13:32:44;21.25;;;11.07;;
24644;SDS011;12780;45.502;9.146;2024-03-08T13:35:10;21.05;;;10.52;;
24644;SDS011;12780;45.502;9.146;2024-03-08T13:37:39;17.73;;;10.63;;
24644;SDS011;12780;45.502;9.146;2024-03-08T13:40:06;17.00;;;10.93;;
24644;SDS011;12780;45.502;9.146;2024-03-08T13:42:36;22.40;;;10.98;;
24644;SDS011;12780;45.502;9.146;2024-03-08T13:45:03;21.70;;;10.75;;
24644;SDS011;12780;45.502;9.146;2024-03-08T13:47:29;17.75;;;10.30;;
24644;SDS011;12780;45.502;9.146;2024-03-08T13:49:56;18.42;;;10.13;;
24644;SDS011;12780;45.502;9.146;2024-03-08T13:52:22;19.25;;;9.80;;
24644;SDS011;12780;45.502;9.146;2024-03-08T13:57:28;22.10;;;11.23;;
24644;SDS011;12780;45.502;9.146;2024-03-08T14:00:01;17.73;;;10.15;;
24644;SDS011;12780;45.502;9.146;2024-03-08T14:02:49;19.60;;;11.20;;
24644;SDS011;12780;45.502;9.146;2024-03-08T14:05:37;15.50;;;10.07;;
24644;SDS011;12780;45.502;9.146;2024-03-08T14:11:29;20.05;;;10.80;;
24644;SDS011;12780;45.502;9.146;2024-03-08T14:13:55;19.45;;;11.02;;
24644;SDS011;12780;45.502;9.146;2024-03-08T14:16:21;18.17;;;11.45;;
24644;SDS011;12780;45.502;9.146;2024-03-08T14:18:47;16.17;;;9.65;;
24644;SDS011;12780;45.502;9.146;2024-03-08T14:21:13;19.38;;;10.73;;
24644;SDS011;12780;45.502;9.146;2024-03-08T14:23:40;23.17;;;10.43;;
24644;SDS011;12780;45.502;9.146;2024-03-08T14:26:08;18.92;;;10.43;;
24644;SDS011;12780;45.502;9.146;2024-03-08T14:28:34;17.10;;;9.90;;
24644;SDS011;12780;45.502;9.146;2024-03-08T14:31:00;18.83;;;10.40;;
24644;SDS011;12780;45.502;9.146;2024-03-08T14:33:31;19.75;;;10.27;;
24644;SDS011;12780;45.502;9.146;2024-03-08T14:35:57;19.25;;;9.73;;
24644;SDS011;12780;45.502;9.146;2024-03-08T14:41:26;15.60;;;9.80;;
24644;SDS011;12780;45.502;9.146;2024-03-08T14:43:53;19.13;;;10.05;;
24644;SDS011;12780;45.502;9.146;2024-03-08T14:46:19;17.30;;;9.82;;